createdAt,value
2019-01-18T00:00:56.306Z,96.10
2019-01-18T00:03:23.816Z,96.20
2019-01-18T00:05:51.352Z,96.30
2019-01-18T00:08:18.827Z,96.20
2019-01-18T00:10:46.683Z,96.20
2019-01-18T00:13:14.243Z,96.20
2019-01-18T00:15:41.733Z,96.20
2019-01-18T00:18:09.548Z,95.90
2019-01-18T00:20:37.028Z,95.70
2019-01-18T00:23:04.846Z,95.90
2019-01-18T00:25:32.623Z,95.60
2019-01-18T00:28:00.147Z,95.10
2019-01-18T00:30:27.881Z,95.20
2019-01-18T00:32:55.438Z,95.10
2019-01-18T00:35:22.883Z,95.00
2019-01-18T00:37:50.375Z,95.00
2019-01-18T00:40:18.707Z,95.00
2019-01-18T00:42:46.233Z,95.10
2019-01-18T00:45:14.616Z,95.00
2019-01-18T00:47:42.100Z,94.90
2019-01-18T00:50:11.762Z,94.80
2019-01-18T00:52:39.328Z,94.70
2019-01-18T00:55:07.132Z,94.80
2019-01-18T00:57:34.661Z,95.00
2019-01-18T01:00:03.927Z,95.00
2019-01-18T01:02:31.475Z,95.10
2019-01-18T01:04:58.927Z,94.90
2019-01-18T01:07:26.405Z,95.00
2019-01-18T01:09:54.179Z,94.80
2019-01-18T01:12:21.664Z,95.00
2019-01-18T01:14:49.172Z,95.20
2019-01-18T01:17:16.696Z,95.20
2019-01-18T01:19:44.136Z,95.00
2019-01-18T01:22:11.632Z,95.00
2019-01-18T01:24:39.128Z,95.20
2019-01-18T01:27:06.612Z,94.90
2019-01-18T01:29:34.384Z,94.80
2019-01-18T01:32:01.932Z,95.00
2019-01-18T01:34:29.428Z,94.90
2019-01-18T01:36:57.277Z,94.90
2019-01-18T01:39:24.835Z,94.80
2019-01-18T01:41:52.347Z,95.20
2019-01-18T01:44:20.104Z,95.20
2019-01-18T01:46:50.504Z,95.20
2019-01-18T01:49:18.160Z,95.50
2019-01-18T01:51:45.915Z,95.60
2019-01-18T01:54:13.427Z,95.70
2019-01-18T01:56:40.905Z,95.40
2019-01-18T01:59:08.405Z,95.10
2019-01-18T02:01:36.165Z,95.10
2019-01-18T02:04:03.815Z,95.00
2019-01-18T02:06:31.331Z,94.90
2019-01-18T02:08:58.855Z,94.80
2019-01-18T02:11:26.368Z,94.90
2019-01-18T02:13:53.859Z,94.70
2019-01-18T02:16:21.331Z,94.70
2019-01-18T02:18:48.863Z,94.90
2019-01-18T02:21:16.357Z,94.50
2019-01-18T02:23:43.884Z,94.50
2019-01-18T02:26:11.659Z,94.50
2019-01-18T02:28:39.144Z,94.40
2019-01-18T02:31:06.703Z,94.40
2019-01-18T02:33:34.243Z,94.70
2019-01-18T02:36:01.935Z,94.70
2019-01-18T02:38:29.437Z,94.50
2019-01-18T02:40:56.948Z,94.80
2019-01-18T02:43:24.400Z,94.70
2019-01-18T02:45:51.960Z,94.80
2019-01-18T02:48:22.188Z,94.90
2019-01-18T02:50:49.980Z,94.80
2019-01-18T02:53:17.457Z,94.70
2019-01-18T02:55:45.008Z,94.60
2019-01-18T02:58:12.457Z,94.70
2019-01-18T03:00:39.961Z,94.70
2019-01-18T03:03:07.467Z,94.90
2019-01-18T03:05:35.108Z,94.90
2019-01-18T03:08:02.604Z,95.00
2019-01-18T03:10:30.336Z,95.00
2019-01-18T03:12:57.813Z,95.00
2019-01-18T03:15:25.314Z,95.00
2019-01-18T03:17:52.886Z,94.90
2019-01-18T03:20:20.731Z,94.70
2019-01-18T03:22:48.202Z,95.00
2019-01-18T03:25:18.212Z,94.80
2019-01-18T03:27:45.667Z,94.70
2019-01-18T03:30:18.462Z,94.60
2019-01-18T03:32:44.194Z,94.50
2019-01-18T03:35:13.064Z,94.40
2019-01-18T03:37:40.549Z,94.70
2019-01-18T03:40:09.677Z,94.70
2019-01-18T03:42:37.587Z,94.70
2019-01-18T03:45:06.662Z,94.90
2019-01-18T03:47:34.150Z,95.00
2019-01-18T03:50:01.866Z,94.90
2019-01-18T03:52:29.365Z,95.10
2019-01-18T03:54:57.039Z,94.90
2019-01-18T03:57:24.541Z,95.20
2019-01-18T03:59:52.070Z,95.00
2019-01-18T04:02:19.550Z,95.10
2019-01-18T04:04:47.070Z,94.90
2019-01-18T04:07:14.545Z,94.80
2019-01-18T04:09:42.032Z,94.40
2019-01-18T04:12:09.569Z,94.20
2019-01-18T04:14:37.217Z,94.30
2019-01-18T04:17:04.697Z,94.20
2019-01-18T04:19:32.252Z,93.80
2019-01-18T04:21:59.719Z,93.80
2019-01-18T04:24:27.388Z,93.70
2019-01-18T04:26:55.020Z,93.70
2019-01-18T04:29:22.564Z,93.70
2019-01-18T04:31:50.128Z,93.90
2019-01-18T04:34:17.760Z,93.80
2019-01-18T04:36:45.770Z,93.70
2019-01-18T04:39:13.528Z,93.50
2019-01-18T04:41:41.285Z,93.50
2019-01-18T04:44:08.902Z,93.60
2019-01-18T04:46:36.472Z,93.70
2019-01-18T04:49:04.119Z,93.60
2019-01-18T04:51:33.873Z,93.60
2019-01-18T04:54:02.043Z,93.60
2019-01-18T04:56:29.753Z,93.60
2019-01-18T04:58:58.008Z,93.70
2019-01-18T05:01:25.578Z,93.70
2019-01-18T05:03:53.128Z,93.80
2019-01-18T05:06:20.657Z,93.90
2019-01-18T05:08:48.215Z,94.10
2019-01-18T05:11:16.583Z,94.00
2019-01-18T05:13:44.128Z,93.70
2019-01-18T05:16:11.920Z,94.30
2019-01-18T05:18:39.512Z,94.20
2019-01-18T05:21:07.474Z,94.20
2019-01-18T05:23:35.364Z,94.20
2019-01-18T05:26:03.638Z,93.90
2019-01-18T05:28:31.167Z,93.80
2019-01-18T05:30:58.695Z,93.80
2019-01-18T05:33:26.252Z,94.00
2019-01-18T05:35:53.907Z,94.20
2019-01-18T05:38:21.640Z,94.10
2019-01-18T05:40:49.487Z,94.30
2019-01-18T05:43:17.355Z,94.10
2019-01-18T05:45:45.180Z,94.10
2019-01-18T05:48:12.932Z,94.20
2019-01-18T05:50:40.821Z,94.20
2019-01-18T05:53:09.283Z,94.10
2019-01-18T05:55:37.112Z,94.20
2019-01-18T05:58:05.138Z,94.20
2019-01-18T06:00:37.763Z,94.10
2019-01-18T06:03:05.764Z,94.20
2019-01-18T06:05:35.366Z,94.20
2019-01-18T06:08:06.765Z,94.20
2019-01-18T06:10:34.609Z,94.40
2019-01-18T06:13:02.206Z,94.50
2019-01-18T06:15:30.120Z,94.50
2019-01-18T06:17:59.767Z,94.60
2019-01-18T06:20:28.596Z,94.40
2019-01-18T06:22:56.357Z,94.30
2019-01-18T06:25:24.776Z,94.10
2019-01-18T06:27:52.394Z,94.20
2019-01-18T06:30:28.797Z,94.50
2019-01-18T06:32:56.801Z,94.50
2019-01-18T06:35:24.597Z,94.50
2019-01-18T06:37:52.265Z,94.60
2019-01-18T06:40:20.043Z,94.70
2019-01-18T06:42:47.937Z,94.80
2019-01-18T06:45:28.299Z,95.10
2019-01-18T06:47:56.109Z,95.20
2019-01-18T06:50:23.989Z,95.20
2019-01-18T06:53:15.019Z,95.20
2019-01-18T06:55:42.929Z,94.90
2019-01-18T06:58:10.522Z,94.70
2019-01-18T07:00:38.336Z,94.50
2019-01-18T07:03:05.952Z,94.70
2019-01-18T07:05:33.488Z,94.60
2019-01-18T07:08:01.242Z,94.50
2019-01-18T07:10:30.448Z,94.60
2019-01-18T07:12:58.205Z,94.60
2019-01-18T07:15:26.053Z,94.80
2019-01-18T07:17:53.733Z,94.80
2019-01-18T07:20:21.260Z,94.60
2019-01-18T07:22:49.721Z,94.70
2019-01-18T07:25:28.206Z,95.20
2019-01-18T07:27:55.928Z,95.50
2019-01-18T07:30:37.837Z,95.60
2019-01-18T07:33:08.035Z,95.60
2019-01-18T07:35:35.609Z,95.70
2019-01-18T07:38:03.282Z,95.80
2019-01-18T07:40:30.915Z,95.60
2019-01-18T07:42:58.404Z,95.80
2019-01-18T07:45:27.079Z,95.90
2019-01-18T07:47:54.672Z,95.70
2019-01-18T07:50:22.143Z,95.90
2019-01-18T07:52:49.988Z,96.10
2019-01-18T07:55:17.505Z,96.00
2019-01-18T07:57:44.990Z,96.00
2019-01-18T08:00:15.472Z,96.10
2019-01-18T08:02:42.987Z,96.20
2019-01-18T08:05:10.444Z,96.40
2019-01-18T08:07:38.189Z,96.60
2019-01-18T08:10:09.168Z,96.70
2019-01-18T08:12:36.627Z,96.60
2019-01-18T08:15:05.145Z,96.50
2019-01-18T08:17:32.600Z,96.30
2019-01-18T08:20:00.164Z,96.00
2019-01-18T08:22:27.545Z,96.10
2019-01-18T08:24:55.040Z,96.10
2019-01-18T08:27:22.507Z,96.10
2019-01-18T08:29:49.992Z,95.80
2019-01-18T08:32:17.448Z,95.70
2019-01-18T08:34:45.055Z,95.30
2019-01-18T08:37:12.592Z,95.10
2019-01-18T08:39:40.313Z,95.30
2019-01-18T08:42:07.887Z,95.20
2019-01-18T08:44:35.624Z,95.10
2019-01-18T08:47:03.465Z,95.10
2019-01-18T08:49:31.140Z,95.30
2019-01-18T08:51:59.368Z,95.10
2019-01-18T08:54:27.220Z,95.10
2019-01-18T08:56:54.912Z,95.10
2019-01-18T08:59:22.849Z,95.00
2019-01-18T09:01:50.456Z,95.10
2019-01-18T09:04:17.984Z,94.80
2019-01-18T09:06:45.473Z,95.20
2019-01-18T09:09:12.965Z,95.30
2019-01-18T09:11:40.510Z,95.50
2019-01-18T09:14:08.028Z,95.40
2019-01-18T09:16:35.612Z,95.50
2019-01-18T09:19:03.174Z,95.50
2019-01-18T09:21:30.632Z,95.40
2019-01-18T09:23:58.124Z,95.20
2019-01-18T09:26:26.064Z,95.20
2019-01-18T09:28:53.692Z,95.50
2019-01-18T09:31:21.180Z,95.20
2019-01-18T09:33:48.780Z,95.10
2019-01-18T09:36:16.248Z,95.00
2019-01-18T09:38:43.725Z,95.30
2019-01-18T09:41:11.160Z,95.60
2019-01-18T09:43:38.616Z,95.40
2019-01-18T09:46:06.369Z,97.10
2019-01-18T09:48:33.896Z,99.40
2019-01-18T09:51:01.354Z,97.30
2019-01-18T09:53:28.822Z,96.80
2019-01-18T09:55:56.324Z,93.90
2019-01-18T09:58:23.825Z,93.70
2019-01-18T10:00:51.655Z,93.30
2019-01-18T10:03:19.498Z,93.50
2019-01-18T10:05:48.084Z,93.60
2019-01-18T10:08:15.911Z,93.80
2019-01-18T10:10:44.200Z,93.70
2019-01-18T10:13:12.239Z,93.60
2019-01-18T10:15:44.948Z,93.80
2019-01-18T10:18:13.727Z,93.40
2019-01-18T10:20:42.043Z,93.90
2019-01-18T10:23:10.017Z,94.00
2019-01-18T10:25:37.650Z,93.80
2019-01-18T10:28:05.350Z,93.70
2019-01-18T10:30:33.281Z,94.00
2019-01-18T10:33:01.046Z,94.20
2019-01-18T10:35:28.716Z,94.30
2019-01-18T10:37:56.456Z,94.10
2019-01-18T10:40:24.497Z,93.70
2019-01-18T10:42:52.272Z,93.80
2019-01-18T10:45:20.344Z,93.60
2019-01-18T10:47:48.259Z,93.30
2019-01-18T10:50:18.005Z,93.30
2019-01-18T10:52:45.945Z,93.50
2019-01-18T10:55:13.428Z,93.10
2019-01-18T10:57:41.102Z,92.80
2019-01-18T11:00:21.681Z,92.70
2019-01-18T11:02:50.017Z,92.90
2019-01-18T11:05:17.883Z,92.60
2019-01-18T11:07:45.484Z,92.80
2019-01-18T11:10:13.188Z,93.10
2019-01-18T11:12:40.868Z,93.00
2019-01-18T11:15:10.472Z,93.00
2019-01-18T11:17:38.088Z,93.10
2019-01-18T11:20:09.959Z,92.90
2019-01-18T11:22:37.533Z,92.90
2019-01-18T11:25:06.034Z,93.30
2019-01-18T11:27:33.789Z,92.60
2019-01-18T11:30:01.785Z,92.00
2019-01-18T11:32:29.509Z,92.30
2019-01-18T11:34:57.433Z,92.50
2019-01-18T11:37:25.040Z,92.40
2019-01-18T11:39:53.649Z,92.20
2019-01-18T11:42:21.217Z,92.00
2019-01-18T11:44:48.748Z,92.10
2019-01-18T11:47:16.321Z,92.90
2019-01-18T11:49:43.787Z,92.80
2019-01-18T11:52:11.689Z,92.60
2019-01-18T11:54:39.457Z,92.40
2019-01-18T11:57:07.012Z,92.50
2019-01-18T11:59:34.794Z,92.50
2019-01-18T12:02:03.056Z,92.60
2019-01-18T12:04:30.502Z,93.50
2019-01-18T12:06:58.085Z,93.70
2019-01-18T12:09:25.988Z,93.50
2019-01-18T12:11:53.480Z,93.00
2019-01-18T12:14:20.992Z,93.30
2019-01-18T12:16:50.278Z,93.80
2019-01-18T12:19:18.709Z,93.70
2019-01-18T12:21:47.939Z,93.50
2019-01-18T12:24:18.059Z,94.00
2019-01-18T12:26:46.224Z,94.10
2019-01-18T12:29:14.803Z,94.20
2019-01-18T12:31:43.574Z,94.40
2019-01-18T12:34:11.954Z,94.70
2019-01-18T12:36:39.928Z,95.10
2019-01-18T12:39:10.025Z,95.50
2019-01-18T12:41:38.671Z,95.90
2019-01-18T12:44:07.056Z,96.00
2019-01-18T12:46:35.628Z,96.20
2019-01-18T12:49:04.556Z,96.20
2019-01-18T12:51:34.045Z,95.90
2019-01-18T12:54:08.405Z,95.30
2019-01-18T12:59:47.914Z,95.50
2019-01-18T13:02:16.042Z,95.60
2019-01-18T13:04:43.751Z,95.20
2019-01-18T13:07:11.304Z,94.90
2019-01-18T13:09:39.023Z,94.90
2019-01-18T13:12:07.809Z,94.50
2019-01-18T13:14:35.737Z,94.10
2019-01-18T13:17:03.802Z,94.00
2019-01-18T13:19:31.855Z,93.40
2019-01-18T13:22:00.777Z,93.10
2019-01-18T13:24:28.763Z,92.90
2019-01-18T13:26:58.614Z,92.90
2019-01-18T13:29:50.701Z,93.10
2019-01-18T13:32:24.945Z,93.00
2019-01-18T13:34:59.405Z,93.00
2019-01-18T13:37:27.994Z,93.50
2019-01-18T13:39:56.483Z,93.60
2019-01-18T13:42:24.302Z,93.00
2019-01-18T13:44:52.865Z,92.30
2019-01-18T13:47:21.519Z,92.50
2019-01-18T13:49:52.795Z,92.50
2019-01-18T13:52:21.258Z,92.80
2019-01-18T13:54:49.425Z,92.90
2019-01-18T13:57:18.219Z,92.70
2019-01-18T13:59:46.354Z,92.50
2019-01-18T14:02:14.798Z,92.70
2019-01-18T14:04:42.841Z,93.00
2019-01-18T14:07:10.904Z,93.30
2019-01-18T14:09:39.237Z,91.60
2019-01-18T14:12:07.619Z,91.40
2019-01-18T14:14:35.675Z,90.70
2019-01-18T14:17:03.217Z,91.10
2019-01-18T14:19:31.466Z,91.60
2019-01-18T14:21:59.429Z,91.50
2019-01-18T14:24:29.973Z,91.10
2019-01-18T14:26:57.600Z,90.90
2019-01-18T14:29:25.749Z,90.80
2019-01-18T14:31:53.409Z,90.30
2019-01-18T14:34:21.656Z,90.40
2019-01-18T14:36:52.833Z,90.50
2019-01-18T14:39:20.481Z,90.80
2019-01-18T14:42:03.135Z,90.40
2019-01-18T14:44:31.379Z,90.40
2019-01-18T14:47:04.979Z,90.70
2019-01-18T14:49:43.243Z,90.90
2019-01-18T14:52:33.953Z,90.60
2019-01-18T14:55:03.687Z,90.70
2019-01-18T14:57:31.811Z,90.50
2019-01-18T15:00:01.081Z,90.70
2019-01-18T15:02:32.659Z,90.90
2019-01-18T15:05:08.679Z,90.90
2019-01-18T15:07:38.564Z,90.90
2019-01-18T15:10:09.478Z,90.50
2019-01-18T15:12:37.445Z,90.20
2019-01-18T15:15:07.480Z,90.60
2019-01-18T15:17:53.162Z,91.30
2019-01-18T15:20:25.399Z,90.90
2019-01-18T15:22:55.088Z,91.20
2019-01-18T15:25:22.909Z,90.60
2019-01-18T15:28:00.966Z,90.60
2019-01-18T15:30:32.786Z,90.00
2019-01-18T15:33:09.019Z,90.00
2019-01-18T15:35:37.063Z,89.40
2019-01-18T15:38:27.971Z,89.30
2019-01-18T15:41:07.682Z,88.90
2019-01-18T15:43:35.447Z,88.30
2019-01-18T15:46:04.032Z,89.30
2019-01-18T15:48:52.072Z,90.00
2019-01-18T15:51:21.614Z,90.10
2019-01-18T15:53:53.196Z,90.30
2019-01-18T15:56:21.163Z,90.40
2019-01-18T15:58:48.722Z,90.70
2019-01-18T16:01:19.376Z,90.80
2019-01-18T16:03:51.956Z,90.90
2019-01-18T16:06:30.071Z,90.90
2019-01-18T16:08:59.314Z,90.90
2019-01-18T16:11:27.116Z,91.00
2019-01-18T16:13:59.153Z,91.10
2019-01-18T16:16:31.288Z,91.20
2019-01-18T16:19:00.103Z,91.00
2019-01-18T16:21:29.942Z,91.10
2019-01-18T16:23:58.137Z,91.00
2019-01-18T16:26:25.636Z,91.40
2019-01-18T16:28:53.097Z,91.50
2019-01-18T16:31:20.597Z,91.50
2019-01-18T16:33:48.426Z,91.50
2019-01-18T16:36:31.760Z,91.30
2019-01-18T16:38:59.293Z,91.50
2019-01-18T16:41:32.696Z,91.50
2019-01-18T16:44:00.261Z,91.60
2019-01-18T16:46:28.051Z,91.60
2019-01-18T16:48:55.516Z,91.80
2019-01-18T16:51:23.129Z,92.30
2019-01-18T16:53:50.664Z,92.20
2019-01-18T16:56:18.620Z,92.30
2019-01-18T16:58:46.096Z,92.30
2019-01-18T17:01:14.592Z,92.30
2019-01-18T17:03:46.344Z,92.30
2019-01-18T17:06:15.010Z,92.50
2019-01-18T17:08:43.349Z,92.60
2019-01-18T17:11:11.495Z,92.50
2019-01-18T17:13:47.490Z,92.70
2019-01-18T17:16:16.045Z,92.50
2019-01-18T17:18:43.988Z,92.60
2019-01-18T17:22:25.260Z,92.40
2019-01-18T17:27:46.675Z,92.50
2019-01-18T17:30:26.901Z,92.50
2019-01-18T17:32:58.407Z,92.50
2019-01-18T17:35:39.481Z,92.30
2019-01-18T17:38:48.565Z,92.20
2019-01-18T17:42:12.059Z,92.60
2019-01-18T17:56:40.390Z,92.70
2019-01-18T18:00:01.739Z,92.80
2019-01-18T18:03:11.808Z,92.60
2019-01-18T18:06:02.365Z,92.50
2019-01-18T18:08:56.135Z,92.60
2019-01-18T18:12:17.722Z,92.70
2019-01-18T18:15:31.553Z,93.20
2019-01-18T18:18:10.009Z,93.40
2019-01-18T18:21:33.608Z,93.70
2019-01-18T18:25:09.022Z,93.80
2019-01-18T18:28:35.885Z,93.90
2019-01-18T18:31:50.412Z,93.90
2019-01-18T18:35:17.945Z,93.90
2019-01-18T18:38:54.586Z,93.90
2019-01-18T18:57:46.275Z,94.40
2019-01-18T19:00:59.027Z,94.50
2019-01-18T19:29:17.921Z,94.70
2019-01-18T19:36:19.472Z,94.30
2019-01-18T19:39:53.581Z,94.50
2019-01-18T19:43:25.354Z,94.50
2019-01-18T19:46:28.469Z,94.40
2019-01-18T19:49:46.657Z,94.30
2019-01-18T19:52:36.720Z,94.50
2019-01-18T19:55:47.989Z,94.50
2019-01-18T19:58:57.038Z,94.50
2019-01-18T20:02:44.854Z,94.70
2019-01-18T20:13:53.654Z,94.80
2019-01-18T20:21:06.801Z,95.00
2019-01-18T20:24:37.687Z,95.10
2019-01-18T20:39:54.629Z,94.90
2019-01-18T20:59:13.079Z,94.50
2019-01-18T21:23:19.334Z,94.30
2019-01-18T21:26:31.589Z,94.30
2019-01-18T21:41:38.739Z,95.00
2019-01-18T21:45:07.531Z,95.30
2019-01-18T21:48:38.598Z,95.30
2019-01-18T22:09:34.962Z,95.10
2019-01-18T22:16:16.059Z,95.10
2019-01-18T22:19:33.571Z,95.30
2019-01-18T22:22:49.098Z,95.30
2019-01-18T22:26:25.673Z,95.20
2019-01-18T22:33:37.580Z,95.00
2019-01-18T22:37:08.881Z,94.70
2019-01-18T22:40:38.714Z,95.10
2019-01-18T22:44:07.509Z,94.90
2019-01-18T22:55:08.497Z,94.80
2019-01-18T23:05:10.928Z,94.60
2019-01-18T23:08:29.412Z,94.50
2019-01-18T23:11:48.801Z,94.30
2019-01-18T23:15:15.871Z,94.00
2019-01-18T23:18:16.203Z,94.20
2019-01-18T23:21:39.398Z,94.10
2019-01-18T23:24:42.550Z,94.20
2019-01-18T23:27:49.268Z,94.10
2019-01-18T23:30:48.801Z,94.20
2019-01-18T23:33:57.090Z,94.30
2019-01-18T23:36:53.533Z,94.30
2019-01-18T23:40:11.537Z,94.10
2019-01-18T23:43:16.397Z,94.00
2019-01-18T23:46:29.005Z,93.90
2019-01-18T23:49:30.429Z,94.00
2019-01-18T23:53:44.128Z,93.90
